Welcome to Northern Hawkes Bay. New Zealand.
PWS Header
      nz Flag



Hit Counter


W3C Valid W3C Valid logo


    Wairoa

Select any of the Stations below to visit their websites.










Historic Data from Weather Underground
Select the location of interest below. Wairoa is the default. Please have patience, this Data is slow to load in.
Northern Hawkes Bay Historical Data
Daily Summary for January 27, 2017 Units:  Metric    English   Both
« Previous Day
Next Day »
Daily Weekly Monthly Yearly Custom
  High: Low: Average:
Temperature: 29.5 °C 12.9 °C 22 °C
Dew Point: 13.8 °C 7.8 °C 11.2 °C
Humidity: 90% 29% 55%
Wind Speed: 19.5km/h 0.0km/h 6.7km/h
Wind Gust: 27.0km/h - -
Wind- - SW
Pressure: 1013.8 hPa 1008.7 hPa -
Precipitation: 0.0 mm    
Historical Graphs
 
 
Tabular Data for January 27, 2017
Time Temperature Dew Point Pressure Wind Wind Speed Wind Gust Humidity Rainfall Rate (Hourly) solar
00:03 17.8 °C 12.1 °C 1010.0 hPa North 5.0 km/h 8.7 km/h 69% 0.0 mm 0 W/m2
00:08 17.8 °C 12.1 °C 1010.0 hPa NNW 6.1 km/h 11.1 km/h 69% 0.0 mm 0 W/m2
00:13 17.9 °C 12.2 °C 1010.0 hPa NNW 7.2 km/h 11.1 km/h 69% 0.0 mm 0 W/m2
00:18 18.1 °C 11.9 °C 1010.0 hPa NNW 7.2 km/h 12.2 km/h 67% 0.0 mm 0 W/m2
00:23 18.1 °C 11.9 °C 1010.0 hPa North 1.1 km/h 12.2 km/h 67% 0.0 mm 0 W/m2
00:28 18.0 °C 11.8 °C 1010.0 hPa Calm   9.7 km/h 67% 0.0 mm 0 W/m2
00:33 17.8 °C 11.8 °C 1010.0 hPa Calm   7.2 km/h 68% 0.0 mm 0 W/m2
00:38 17.5 °C 11.8 °C 1010.0 hPa NNE 2.6 km/h 6.1 km/h 69% 0.0 mm 0 W/m2
00:43 17.4 °C 11.9 °C 1010.0 hPa Calm   6.1 km/h 70% 0.0 mm 0 W/m2
00:48 17.2 °C 11.7 °C 1010.0 hPa Calm   5.0 km/h 70% 0.0 mm 0 W/m2
00:53 16.9 °C 11.8 °C 1010.4 hPa Calm   1.1 km/h 72% 0.0 mm 0 W/m2
00:58 16.8 °C 11.7 °C 1010.0 hPa Calm     72% 0.0 mm 0 W/m2
01:03 16.6 °C 11.6 °C 1010.0 hPa Calm     72% 0.0 mm 0 W/m2
01:08 16.3 °C 11.3 °C 1010.4 hPa Calm     72% 0.0 mm 0 W/m2
01:13 16.3 °C 11.7 °C 1010.4 hPa Calm   2.6 km/h 74% 0.0 mm 0 W/m2
01:18 16.3 °C 11.7 °C 1010.0 hPa North 3.5 km/h 5.0 km/h 74% 0.0 mm 0 W/m2
01:23 16.3 °C 11.9 °C 1010.0 hPa North 6.1 km/h 8.7 km/h 75% 0.0 mm 0 W/m2
01:28 16.4 °C 11.9 °C 1010.0 hPa North 3.5 km/h 8.7 km/h 75% 0.0 mm 0 W/m2
01:33 16.4 °C 11.9 °C 1010.0 hPa North 3.5 km/h 9.7 km/h 75% 0.0 mm 0 W/m2
01:38 16.5 °C 12.1 °C 1010.0 hPa North 5.0 km/h 9.7 km/h 75% 0.0 mm 0 W/m2
01:43 16.6 °C 12.2 °C 1010.0 hPa North 6.1 km/h 14.8 km/h 75% 0.0 mm 0 W/m2
01:48 16.9 °C 12.2 °C 1009.7 hPa NNW 7.2 km/h 14.8 km/h 74% 0.0 mm 0 W/m2
01:53 17.2 °C 12.3 °C 1010.0 hPa NNW 6.1 km/h 13.4 km/h 73% 0.0 mm 0 W/m2
01:58 17.3 °C 12.2 °C 1010.0 hPa NNW 7.2 km/h 13.4 km/h 72% 0.0 mm 0 W/m2
02:03 17.2 °C 12.1 °C 1010.0 hPa North 5.0 km/h 11.1 km/h 72% 0.0 mm 0 W/m2
02:08 17.1 °C 12.0 °C 1010.0 hPa North 3.5 km/h 11.1 km/h 72% 0.0 mm 0 W/m2
02:13 16.9 °C 12.2 °C 1010.0 hPa North 5.0 km/h 9.7 km/h 74% 0.0 mm 0 W/m2
02:18 16.8 °C 12.2 °C 1010.0 hPa NNW 5.0 km/h 12.2 km/h 74% 0.0 mm 0 W/m2
02:23 16.7 °C 12.1 °C 1010.0 hPa NNW 3.5 km/h 12.2 km/h 74% 0.0 mm 0 W/m2
02:28 16.6 °C 12.2 °C 1010.0 hPa North 5.0 km/h 12.2 km/h 75% 0.0 mm 0 W/m2
02:33 16.6 °C 12.2 °C 1010.0 hPa North 6.1 km/h 13.4 km/h 75% 0.0 mm 0 W/m2
02:38 16.6 °C 12.2 °C 1010.0 hPa NNW 5.0 km/h 13.4 km/h 75% 0.0 mm 0 W/m2
02:43 16.6 °C 12.2 °C 1010.0 hPa North 7.2 km/h 12.2 km/h 75% 0.0 mm 0 W/m2
02:48 16.5 °C 12.1 °C 1010.0 hPa NNW 5.0 km/h 13.4 km/h 75% 0.0 mm 0 W/m2
02:53 16.4 °C 11.9 °C 1010.0 hPa NNW 8.7 km/h 13.4 km/h 75% 0.0 mm 0 W/m2
02:58 16.3 °C 11.9 °C 1009.7 hPa North 8.7 km/h 12.2 km/h 75% 0.0 mm 0 W/m2
03:03 16.3 °C 12.1 °C 1010.0 hPa North 6.1 km/h 12.2 km/h 76% 0.0 mm 0 W/m2
03:08 16.3 °C 12.1 °C 1010.0 hPa North 5.0 km/h 12.2 km/h 76% 0.0 mm 0 W/m2
03:13 16.2 °C 12.0 °C 1010.0 hPa North 5.0 km/h 9.7 km/h 76% 0.0 mm 0 W/m2
03:18 16.2 °C 12.0 °C 1010.0 hPa North 3.5 km/h 8.7 km/h 76% 0.0 mm 0 W/m2
03:23 16.3 °C 12.1 °C 1009.7 hPa North 5.0 km/h 9.7 km/h 76% 0.0 mm 0 W/m2
03:28 16.3 °C 12.1 °C 1009.7 hPa North 6.1 km/h 9.7 km/h 76% 0.0 mm 0 W/m2
03:33 16.4 °C 12.2 °C 1009.7 hPa North 5.0 km/h 9.7 km/h 76% 0.0 mm 0 W/m2
03:38 16.3 °C 11.9 °C 1009.7 hPa North 5.0 km/h 9.7 km/h 75% 0.0 mm 0 W/m2
03:43 16.2 °C 12.0 °C 1009.7 hPa NNE 3.5 km/h 8.7 km/h 76% 0.0 mm 0 W/m2
03:48 16.2 °C 12.0 °C 1009.7 hPa NNE 3.5 km/h 8.7 km/h 76% 0.0 mm 0 W/m2
03:53 16.1 °C 11.9 °C 1009.7 hPa NNE 1.1 km/h 8.7 km/h 76% 0.0 mm 0 W/m2
03:58 15.9 °C 11.9 °C 1009.7 hPa North 2.6 km/h 6.1 km/h 77% 0.0 mm 0 W/m2
04:03 15.8 °C 11.8 °C 1009.7 hPa NNW 1.1 km/h 6.1 km/h 77% 0.0 mm 0 W/m2
04:08 15.7 °C 11.7 °C 1009.7 hPa Calm   5.0 km/h 77% 0.0 mm 0 W/m2
04:13 15.5 °C 11.5 °C 1009.7 hPa NW 1.1 km/h 3.5 km/h 77% 0.0 mm 0 W/m2
04:18 15.3 °C 11.3 °C 1009.7 hPa NW 3.5 km/h 5.0 km/h 77% 0.0 mm 0 W/m2
04:23 15.1 °C 11.3 °C 1009.7 hPa NW 3.5 km/h 6.1 km/h 78% 0.0 mm 0 W/m2
04:28 15.1 °C 11.7 °C 1009.7 hPa NNW 3.5 km/h 6.1 km/h 80% 0.0 mm 0 W/m2
04:33 15.1 °C 11.9 °C 1010.0 hPa NNW 2.6 km/h 6.1 km/h 81% 0.0 mm 0 W/m2
04:38 15.2 °C 11.9 °C 1009.7 hPa NNW 5.0 km/h 8.7 km/h 81% 0.0 mm 0 W/m2
04:43 15.2 °C 11.9 °C 1010.0 hPa NNW 3.5 km/h 8.7 km/h 81% 0.0 mm 0 W/m2
04:48 15.1 °C 11.9 °C 1009.7 hPa NW 2.6 km/h 8.7 km/h 81% 0.0 mm 0 W/m2
04:53 14.9 °C 12.1 °C 1010.0 hPa NW 5.0 km/h 8.7 km/h 83% 0.0 mm 0 W/m2
04:58 14.7 °C 11.8 °C 1010.0 hPa NW 3.5 km/h 9.7 km/h 83% 0.0 mm 0 W/m2
05:03 14.5 °C 11.8 °C 1010.0 hPa NW 5.0 km/h 9.7 km/h 84% 0.0 mm 0 W/m2
05:08 14.2 °C 11.6 °C 1010.0 hPa NW 5.0 km/h 7.2 km/h 84% 0.0 mm 0 W/m2
05:13 14.0 °C 11.5 °C 1010.0 hPa NW 5.0 km/h 7.2 km/h 85% 0.0 mm 0 W/m2
05:18 13.8 °C 11.5 °C 1010.0 hPa NW 1.1 km/h 7.2 km/h 86% 0.0 mm 0 W/m2
05:23 13.6 °C 11.3 °C 1010.0 hPa NW 3.5 km/h 6.1 km/h 86% 0.0 mm 0 W/m2
05:28 13.4 °C 11.3 °C 1010.0 hPa NW 1.1 km/h 5.0 km/h 87% 0.0 mm 0 W/m2
05:32 13.3 °C 11.2 °C 1010.0 hPa NW 2.6 km/h 5.0 km/h 87% 0.0 mm 0 W/m2
05:37 13.2 °C 11.3 °C 1010.0 hPa NW 2.6 km/h 5.0 km/h 88% 0.0 mm 0 W/m2
05:42 13.0 °C 11.1 °C 1010.0 hPa NW 2.6 km/h 5.0 km/h 88% 0.0 mm 0 W/m2
05:47 12.9 °C 11.1 °C 1010.0 hPa NW 2.6 km/h 5.0 km/h 89% 0.0 mm 0 W/m2
05:52 12.9 °C 11.1 °C 1010.0 hPa NW 2.6 km/h 6.1 km/h 89% 0.0 mm 0 W/m2
05:57 13.0 °C 11.2 °C 1010.4 hPa NW 2.6 km/h 6.1 km/h 89% 0.0 mm 0 W/m2
06:02 13.1 °C 11.3 °C 1010.4 hPa NW 2.6 km/h 5.0 km/h 89% 0.0 mm 0 W/m2
06:07 13.1 °C 11.3 °C 1010.4 hPa NW 2.6 km/h 5.0 km/h 89% 0.0 mm 0 W/m2
06:12 13.1 °C 11.3 °C 1010.4 hPa NW 3.5 km/h 7.2 km/h 89% 0.0 mm 2 W/m2
06:17 13.1 °C 11.3 °C 1010.4 hPa NW 3.5 km/h 7.2 km/h 89% 0.0 mm 4 W/m2
06:22 13.0 °C 11.2 °C 1010.4 hPa NW 5.0 km/h 8.7 km/h 89% 0.0 mm 7 W/m2
06:27 12.9 °C 11.1 °C 1010.4 hPa NW 5.0 km/h 9.7 km/h 89% 0.0 mm 11 W/m2
06:32 12.9 °C 11.3 °C 1010.4 hPa NW 3.5 km/h 9.7 km/h 90% 0.0 mm 15 W/m2
06:37 13.0 °C 11.2 °C 1010.7 hPa NW 2.6 km/h 7.2 km/h 89% 0.0 mm 37 W/m2
06:42 13.3 °C 11.7 °C 1010.4 hPa NNW 2.6 km/h 6.1 km/h 90% 0.0 mm 46 W/m2
06:47 13.8 °C 12.0 °C 1010.4 hPa NW 3.5 km/h 5.0 km/h 89% 0.0 mm 52 W/m2
06:52 14.2 °C 11.9 °C 1010.4 hPa NW 3.5 km/h 6.1 km/h 86% 0.0 mm 55 W/m2
06:57 14.8 °C 12.1 °C 1010.7 hPa NW 6.1 km/h 7.2 km/h 84% 0.0 mm 60 W/m2
07:02 15.2 °C 11.9 °C 1010.4 hPa NNW 7.2 km/h 9.7 km/h 81% 0.0 mm 65 W/m2
07:07 15.3 °C 11.7 °C 1010.7 hPa NNW 5.0 km/h 9.7 km/h 79% 0.0 mm 71 W/m2
07:12 15.3 °C 11.5 °C 1010.7 hPa NNW 6.1 km/h 8.7 km/h 78% 0.0 mm 81 W/m2
07:17 15.5 °C 11.7 °C 1010.7 hPa NNW 3.5 km/h 8.7 km/h 78% 0.0 mm 90 W/m2
07:22 15.8 °C 11.8 °C 1010.7 hPa NNW 3.5 km/h 8.7 km/h 77% 0.0 mm 101 W/m2
07:27 16.3 °C 11.9 °C 1010.7 hPa NNW 3.5 km/h 7.2 km/h 75% 0.0 mm 113 W/m2
07:32 16.7 °C 11.8 °C 1010.7 hPa NNW 5.0 km/h 7.2 km/h 73% 0.0 mm 128 W/m2
07:37 17.0 °C 11.7 °C 1010.7 hPa North 3.5 km/h 7.2 km/h 71% 0.0 mm 140 W/m2
07:42 17.7 °C 11.9 °C 1010.7 hPa North 6.1 km/h 9.7 km/h 69% 0.0 mm 154 W/m2
07:47 17.8 °C 11.6 °C 1010.7 hPa North 7.2 km/h 15.8 km/h 67% 0.0 mm 169 W/m2
07:52 17.8 °C 11.4 °C 1010.7 hPa North 8.7 km/h 15.8 km/h 66% 0.0 mm 183 W/m2
07:57 18.0 °C 11.8 °C 1010.7 hPa North 8.7 km/h 15.8 km/h 67% 0.0 mm 194 W/m2
08:02 18.3 °C 11.8 °C 1010.7 hPa North 9.7 km/h 15.8 km/h 66% 0.0 mm 206 W/m2
08:07 18.6 °C 11.9 °C 1010.7 hPa North 11.1 km/h 17.2 km/h 65% 0.0 mm 219 W/m2
08:12 18.7 °C 12.0 °C 1010.7 hPa NNW 8.7 km/h 18.3 km/h 65% 0.0 mm 229 W/m2
08:17 18.9 °C 11.9 °C 1010.7 hPa North 11.1 km/h 18.3 km/h 64% 0.0 mm 246 W/m2
08:22 19.2 °C 11.8 °C 1010.7 hPa NNW 9.7 km/h 17.2 km/h 62% 0.0 mm 260 W/m2
08:27 19.4 °C 11.7 °C 1010.7 hPa NNW 9.7 km/h 17.2 km/h 61% 0.0 mm 274 W/m2
08:32 19.4 °C 11.4 °C 1010.7 hPa NNW 7.2 km/h 14.8 km/h 60% 0.0 mm 284 W/m2
08:37 19.7 °C 12.0 °C 1010.7 hPa North 2.6 km/h 14.8 km/h 61% 0.0 mm 300 W/m2
08:42 20.4 °C 12.1 °C 1011.1 hPa North 2.6 km/h 14.8 km/h 59% 0.0 mm 317 W/m2
08:47 20.9 °C 12.3 °C 1010.7 hPa North 1.1 km/h 9.7 km/h 58% 0.0 mm 332 W/m2
08:52 21.3 °C 11.9 °C 1010.7 hPa NNW 3.5 km/h 9.7 km/h 55% 0.0 mm 350 W/m2
08:57 21.6 °C 11.9 °C 1010.7 hPa NNW 8.7 km/h 13.4 km/h 54% 0.0 mm 367 W/m2
09:02 21.6 °C 11.3 °C 1010.7 hPa NNW 11.1 km/h 15.8 km/h 52% 0.0 mm 384 W/m2
09:07 21.2 °C 11.3 °C 1010.7 hPa NNW 6.1 km/h 18.3 km/h 53% 0.0 mm 398 W/m2
09:12 21.3 °C 11.3 °C 1010.7 hPa NW 17.2 km/h 20.9 km/h 53% 0.0 mm 418 W/m2
09:17 21.3 °C 11.6 °C 1010.7 hPa NW 9.7 km/h 20.9 km/h 54% 0.0 mm 436 W/m2
09:22 21.7 °C 11.4 °C 1010.7 hPa NNW 15.8 km/h 20.9 km/h 52% 0.0 mm 461 W/m2
09:27 21.9 °C 11.3 °C 1010.7 hPa NNW 19.5 km/h 27.0 km/h 51% 0.0 mm 478 W/m2
09:32 21.9 °C 11.3 °C 1010.7 hPa NNW 13.4 km/h 27.0 km/h 51% 0.0 mm 492 W/m2
09:37 22.0 °C 11.4 °C 1010.7 hPa NNW 15.8 km/h 25.6 km/h 51% 0.0 mm 510 W/m2
09:42 22.0 °C 10.8 °C 1010.7 hPa North 13.4 km/h 25.6 km/h 49% 0.0 mm 529 W/m2
09:47 22.6 °C 11.3 °C 1010.7 hPa North 11.1 km/h 25.6 km/h 49% 0.0 mm 549 W/m2
09:51 22.6 °C 10.7 °C 1010.7 hPa WNW 9.7 km/h 14.8 km/h 47% 0.0 mm 559 W/m2
09:52 22.6 °C 11.1 °C 1010.7 hPa NNW 9.7 km/h 19.5 km/h 48% 0.0 mm 568 W/m2
09:57 22.7 °C 11.2 °C 1010.7 hPa NW 9.7 km/h 20.9 km/h 48% 0.0 mm 591 W/m2
10:27 24.2 °C 11.5 °C 1010.7 hPa North 11.1 km/h 14.8 km/h 45% 0.0 mm 704 W/m2
10:33 24.4 °C 11.4 °C 1010.7 hPa NNW 7.2 km/h 20.9 km/h 44% 0.0 mm 760 W/m2
10:38 24.7 °C 9.8 °C 1010.7 hPa NW 9.7 km/h 20.9 km/h 39% 0.0 mm 779 W/m2
10:43 24.9 °C 10.0 °C 1010.7 hPa NW 12.2 km/h 21.9 km/h 39% 0.0 mm 807 W/m2
10:48 25.0 °C 9.3 °C 1010.7 hPa WNW 7.2 km/h 21.9 km/h 37% 0.0 mm 821 W/m2
10:53 25.3 °C 10.0 °C 1010.7 hPa WNW 5.0 km/h 21.9 km/h 38% 0.0 mm 841 W/m2
10:59 26.1 °C 9.4 °C 1010.7 hPa WNW 15.8 km/h 19.5 km/h 35% 0.0 mm 860 W/m2
11:04 24.3 °C 12.3 °C 1010.7 hPa SW 9.7 km/h 21.9 km/h 47% 0.0 mm 863 W/m2
11:09 23.9 °C 12.2 °C 1010.7 hPa SSW 11.1 km/h 21.9 km/h 48% 0.0 mm 870 W/m2
11:14 23.5 °C 11.6 °C 1010.7 hPa South 9.7 km/h 18.3 km/h 47% 0.0 mm 877 W/m2
11:19 23.7 °C 12.1 °C 1010.7 hPa South 13.4 km/h 18.3 km/h 48% 0.0 mm 889 W/m2
11:24 23.1 °C 11.8 °C 1011.1 hPa South 9.7 km/h 20.9 km/h 49% 0.0 mm 892 W/m2
11:29 23.3 °C 12.9 °C 1010.7 hPa South 11.1 km/h 20.9 km/h 52% 0.0 mm 902 W/m2
11:34 23.4 °C 13.0 °C 1010.7 hPa SSE 9.7 km/h 17.2 km/h 52% 0.0 mm 916 W/m2
11:40 23.3 °C 12.0 °C 1010.7 hPa South 12.2 km/h 18.3 km/h 49% 0.0 mm 924 W/m2
11:45 23.5 °C 11.9 °C 1010.7 hPa SSW 9.7 km/h 18.3 km/h 48% 0.0 mm 931 W/m2
11:50 23.5 °C 11.6 °C 1010.7 hPa SSW 8.7 km/h 18.3 km/h 47% 0.0 mm 937 W/m2
11:55 24.0 °C 12.0 °C 1010.7 hPa South 9.7 km/h 18.3 km/h 47% 0.0 mm 948 W/m2
12:00 24.6 °C 12.2 °C 1010.7 hPa SSW 14.8 km/h 18.3 km/h 46% 0.0 mm 960 W/m2
12:05 24.3 °C 10.2 °C 1010.7 hPa SSW 11.1 km/h 19.5 km/h 41% 0.0 mm 959 W/m2
12:10 24.6 °C 10.8 °C 1010.4 hPa SSW 12.2 km/h 19.5 km/h 42% 0.0 mm 966 W/m2
12:15 24.6 °C 11.6 °C 1010.4 hPa South 5.0 km/h 15.8 km/h 44% 0.0 mm 971 W/m2
12:20 24.8 °C 11.4 °C 1010.4 hPa South 8.7 km/h 15.8 km/h 43% 0.0 mm 974 W/m2
12:25 24.9 °C 11.5 °C 1010.0 hPa South 7.2 km/h 14.8 km/h 43% 0.0 mm 974 W/m2
12:30 24.6 °C 11.6 °C 1010.4 hPa SSE 11.1 km/h 15.8 km/h 44% 0.0 mm 974 W/m2
12:36 24.5 °C 10.8 °C 1010.4 hPa South 13.4 km/h 17.2 km/h 42% 0.0 mm 976 W/m2
12:41 24.5 °C 11.4 °C 1010.4 hPa South 7.2 km/h 17.2 km/h 44% 0.0 mm 975 W/m2
12:47 25.0 °C 9.7 °C 1010.0 hPa South 11.1 km/h 17.2 km/h 38% 0.0 mm 981 W/m2
12:54 25.5 °C 12.0 °C 1010.0 hPa SSE 7.2 km/h 14.8 km/h 43% 0.0 mm 983 W/m2
13:05 26.1 °C 9.1 °C 1010.0 hPa South 6.1 km/h 11.1 km/h 34% 0.0 mm 988 W/m2
13:10 25.8 °C 11.6 °C 1010.0 hPa SSE 9.7 km/h 15.8 km/h 41% 0.0 mm 982 W/m2
13:15 26.1 °C 10.3 °C 1010.0 hPa South 8.7 km/h 15.8 km/h 37% 0.0 mm 980 W/m2
13:20 26.1 °C 9.1 °C 1009.7 hPa SSW 7.2 km/h 15.8 km/h 34% 0.0 mm 979 W/m2
13:25 25.8 °C 12.7 °C 1010.0 hPa South 7.2 km/h 15.8 km/h 44% 0.0 mm 968 W/m2
13:26 25.9 °C 12.7 °C 1010.0 hPa South 3.5 km/h 15.8 km/h 44% 0.0 mm 967 W/m2
13:31 25.9 °C 10.1 °C 1010.0 hPa South 9.7 km/h 19.5 km/h 37% 0.0 mm 964 W/m2
13:37 25.6 °C 10.6 °C 1009.7 hPa South 9.7 km/h 19.5 km/h 39% 0.0 mm 955 W/m2
13:42 26.0 °C 9.8 °C 1009.7 hPa South 5.0 km/h 15.8 km/h 36% 0.0 mm 949 W/m2
13:47 26.3 °C 10.1 °C 1009.7 hPa SSE 8.7 km/h 15.8 km/h 36% 0.0 mm 947 W/m2
13:52 26.7 °C 9.1 °C 1009.7 hPa SSE 6.1 km/h 15.8 km/h 33% 0.0 mm 944 W/m2
13:57 26.5 °C 8.9 °C 1009.7 hPa South 7.2 km/h 17.2 km/h 33% 0.0 mm 939 W/m2
14:02 26.7 °C 8.7 °C 1009.7 hPa South 13.4 km/h 17.2 km/h 32% 0.0 mm 934 W/m2
14:07 26.5 °C 8.9 °C 1009.4 hPa SSE 3.5 km/h 15.8 km/h 33% 0.0 mm 923 W/m2
14:12 27.2 °C 8.6 °C 1009.4 hPa SSE 7.2 km/h 14.8 km/h 31% 0.0 mm 921 W/m2
14:17 27.7 °C 9.1 °C 1009.4 hPa SSE 9.7 km/h 13.4 km/h 31% 0.0 mm 918 W/m2
14:22 26.8 °C 8.7 °C 1009.4 hPa South 8.7 km/h 14.8 km/h 32% 0.0 mm 904 W/m2
14:27 27.1 °C 8.1 °C 1009.4 hPa SSE 11.1 km/h 14.8 km/h 30% 0.0 mm 897 W/m2
14:32 27.2 °C 8.2 °C 1009.4 hPa SSE 5.0 km/h 14.8 km/h 30% 0.0 mm 890 W/m2
14:50 27.4 °C 7.8 °C 1009.4 hPa SSE 8.7 km/h 15.8 km/h 29% 0.0 mm 860 W/m2
14:55 27.4 °C 11.1 °C 1009.4 hPa SSE 7.2 km/h 15.8 km/h 36% 0.0 mm 847 W/m2
15:00 27.6 °C 10.3 °C 1009.4 hPa SSE 5.0 km/h 15.8 km/h 34% 0.0 mm 837 W/m2
15:05 27.6 °C 12.0 °C 1009.4 hPa SSE 11.1 km/h 15.8 km/h 38% 0.0 mm 825 W/m2
15:10 27.4 °C 12.6 °C 1009.4 hPa SE 7.2 km/h 15.8 km/h 40% 0.0 mm 815 W/m2
15:15 27.3 °C 10.1 °C 1009.4 hPa SE 2.6 km/h 15.8 km/h 34% 0.0 mm 717 W/m2
15:20 27.7 °C 9.1 °C 1009.4 hPa SSE 7.2 km/h 14.8 km/h 31% 0.0 mm 719 W/m2
15:25 28.0 °C 10.7 °C 1009.4 hPa South 13.4 km/h 17.2 km/h 34% 0.0 mm 750 W/m2
15:30 27.0 °C 9.4 °C 1009.4 hPa South 8.7 km/h 17.2 km/h 33% 0.0 mm 768 W/m2
15:36 27.6 °C 10.8 °C 1009.4 hPa SSE 5.0 km/h 17.2 km/h 35% 0.0 mm 756 W/m2
15:41 28.2 °C 11.3 °C 1009.0 hPa SSE 6.1 km/h 12.2 km/h 35% 0.0 mm 685 W/m2
15:46 28.6 °C 10.8 °C 1009.0 hPa SSE 6.1 km/h 12.2 km/h 33% 0.0 mm 552 W/m2
15:51 28.9 °C 10.6 °C 1009.0 hPa SE 6.1 km/h 12.2 km/h 32% 0.0 mm 484 W/m2
15:56 28.5 °C 9.3 °C 1008.7 hPa SSE 3.5 km/h 11.1 km/h 30% 0.0 mm 483 W/m2
16:01 28.8 °C 10.0 °C 1008.7 hPa SSE 8.7 km/h 14.8 km/h 31% 0.0 mm 587 W/m2
16:06 28.8 °C 10.0 °C 1008.7 hPa SE 5.0 km/h 14.8 km/h 31% 0.0 mm 418 W/m2
16:17 28.6 °C 10.3 °C 1009.0 hPa SSE 7.2 km/h 13.4 km/h 32% 0.0 mm 664 W/m2
16:22 29.3 °C 11.8 °C 1009.0 hPa SE 9.7 km/h 15.8 km/h 34% 0.0 mm 649 W/m2
16:27 28.6 °C 12.1 °C 1009.0 hPa SSE 8.7 km/h 15.8 km/h 36% 0.0 mm 630 W/m2
16:32 28.0 °C 11.1 °C 1009.0 hPa SSE 5.0 km/h 18.3 km/h 35% 0.0 mm 616 W/m2
16:37 27.8 °C 9.2 °C 1008.7 hPa SE 9.7 km/h 19.5 km/h 31% 0.0 mm 601 W/m2
16:39 27.8 °C 9.2 °C 1009.0 hPa ESE 3.5 km/h 19.5 km/h 31% 0.0 mm 596 W/m2
16:44 28.3 °C 10.1 °C 1008.7 hPa SE 8.7 km/h 19.5 km/h 32% 0.0 mm 586 W/m2
16:49 29.3 °C 9.9 °C 1008.7 hPa SE 6.1 km/h 13.4 km/h 30% 0.0 mm 573 W/m2
16:55 29.5 °C 9.6 °C 1008.7 hPa SE 3.5 km/h 12.2 km/h 29% 0.0 mm 557 W/m2
17:00 29.2 °C 9.4 °C 1008.7 hPa SE 8.7 km/h 17.2 km/h 29% 0.0 mm 544 W/m2
17:05 28.5 °C 10.7 °C 1009.0 hPa SSE 7.2 km/h 17.2 km/h 33% 0.0 mm 527 W/m2
17:10 28.3 °C 11.8 °C 1008.7 hPa SE 5.0 km/h 15.8 km/h 36% 0.0 mm 508 W/m2
17:15 28.5 °C 11.6 °C 1008.7 hPa SSE 6.1 km/h 14.8 km/h 35% 0.0 mm 494 W/m2
17:20 28.2 °C 11.3 °C 1009.0 hPa South 3.5 km/h 14.8 km/h 35% 0.0 mm 479 W/m2
17:25 28.3 °C 10.1 °C 1008.7 hPa SSE 9.7 km/h 14.8 km/h 32% 0.0 mm 464 W/m2
17:30 28.5 °C 10.7 °C 1008.7 hPa SSE 8.7 km/h 14.8 km/h 33% 0.0 mm 460 W/m2
17:35 28.5 °C 10.7 °C 1008.7 hPa SSE 8.7 km/h 14.8 km/h 33% 0.0 mm 460 W/m2
17:40 28.5 °C 10.7 °C 1008.7 hPa SSE 8.7 km/h 14.8 km/h 33% 0.0 mm 460 W/m2
17:46 28.5 °C 10.7 °C 1008.7 hPa SSE 8.7 km/h 14.8 km/h 33% 0.0 mm 460 W/m2
17:51 28.5 °C 10.7 °C 1008.7 hPa SSE 8.7 km/h 14.8 km/h 33% 0.0 mm 460 W/m2
17:56 28.5 °C 10.7 °C 1008.7 hPa SSE 8.7 km/h 14.8 km/h 33% 0.0 mm 460 W/m2
18:01 28.5 °C 10.7 °C 1008.7 hPa SSE 8.7 km/h 14.8 km/h 33% 0.0 mm 460 W/m2
18:06 28.5 °C 10.7 °C 1008.7 hPa SSE 8.7 km/h 14.8 km/h 33% 0.0 mm 460 W/m2
18:11 28.5 °C 10.7 °C 1008.7 hPa SSE 8.7 km/h 14.8 km/h 33% 0.0 mm 460 W/m2
18:16 28.5 °C 10.7 °C 1008.7 hPa SSE 8.7 km/h 14.8 km/h 33% 0.0 mm 460 W/m2
18:22 28.5 °C 10.7 °C 1008.7 hPa SSE 8.7 km/h 14.8 km/h 33% 0.0 mm 460 W/m2
18:27 28.5 °C 10.7 °C 1008.7 hPa SSE 8.7 km/h 14.8 km/h 33% 0.0 mm 460 W/m2
18:32 28.5 °C 10.7 °C 1008.7 hPa SSE 8.7 km/h 14.8 km/h 33% 0.0 mm 460 W/m2
18:38 28.5 °C 10.7 °C 1008.7 hPa SSE 8.7 km/h 14.8 km/h 33% 0.0 mm 460 W/m2
18:43 28.5 °C 10.7 °C 1008.7 hPa SSE 8.7 km/h 14.8 km/h 33% 0.0 mm 460 W/m2
18:48 28.5 °C 10.7 °C 1008.7 hPa SSE 8.7 km/h 14.8 km/h 33% 0.0 mm 460 W/m2
18:53 28.5 °C 10.7 °C 1008.7 hPa SSE 8.7 km/h 14.8 km/h 33% 0.0 mm 460 W/m2
18:58 28.5 °C 10.7 °C 1008.7 hPa SSE 8.7 km/h 14.8 km/h 33% 0.0 mm 460 W/m2
19:03 28.5 °C 10.7 °C 1008.7 hPa SSE 8.7 km/h 14.8 km/h 33% 0.0 mm 460 W/m2
19:08 28.5 °C 10.7 °C 1008.7 hPa SSE 8.7 km/h 14.8 km/h 33% 0.0 mm 460 W/m2
19:13 28.5 °C 10.7 °C 1008.7 hPa SSE 8.7 km/h 14.8 km/h 33% 0.0 mm 460 W/m2
19:18 28.5 °C 10.7 °C 1008.7 hPa SSE 8.7 km/h 14.8 km/h 33% 0.0 mm 460 W/m2
19:23 28.5 °C 10.7 °C 1008.7 hPa SSE 8.7 km/h 14.8 km/h 33% 0.0 mm 460 W/m2
19:28 28.5 °C 10.7 °C 1008.7 hPa SSE 8.7 km/h 14.8 km/h 33% 0.0 mm 460 W/m2
19:33 28.5 °C 10.7 °C 1008.7 hPa SSE 8.7 km/h 14.8 km/h 33% 0.0 mm 460 W/m2
19:39 28.5 °C 10.7 °C 1008.7 hPa SSE 8.7 km/h 14.8 km/h 33% 0.0 mm 460 W/m2
19:44 28.5 °C 10.7 °C 1008.7 hPa SSE 8.7 km/h 14.8 km/h 33% 0.0 mm 460 W/m2
19:55 28.5 °C 10.7 °C 1008.7 hPa SSE 8.7 km/h 14.8 km/h 33% 0.0 mm 460 W/m2
20:00 28.5 °C 10.7 °C 1008.7 hPa SSE 8.7 km/h 14.8 km/h 33% 0.0 mm 460 W/m2
20:05 28.5 °C 10.7 °C 1008.7 hPa SSE 8.7 km/h 14.8 km/h 33% 0.0 mm 460 W/m2
20:10 28.5 °C 10.7 °C 1008.7 hPa SSE 8.7 km/h 14.8 km/h 33% 0.0 mm 460 W/m2
20:15 28.5 °C 10.7 °C 1008.7 hPa SSE 8.7 km/h 14.8 km/h 33% 0.0 mm 460 W/m2
20:20 28.5 °C 10.7 °C 1008.7 hPa SSE 8.7 km/h 14.8 km/h 33% 0.0 mm 460 W/m2
20:25 28.5 °C 10.7 °C 1008.7 hPa SSE 8.7 km/h 14.8 km/h 33% 0.0 mm 460 W/m2
20:31 28.5 °C 10.7 °C 1008.7 hPa SSE 8.7 km/h 14.8 km/h 33% 0.0 mm 460 W/m2
20:36 28.5 °C 10.7 °C 1008.7 hPa SSE 8.7 km/h 14.8 km/h 33% 0.0 mm 460 W/m2
20:42 28.5 °C 10.7 °C 1008.7 hPa SSE 8.7 km/h 14.8 km/h 33% 0.0 mm 460 W/m2
20:47 28.5 °C 10.7 °C 1008.7 hPa SSE 8.7 km/h 14.8 km/h 33% 0.0 mm 460 W/m2
20:52 28.5 °C 10.7 °C 1008.7 hPa SSE 8.7 km/h 14.8 km/h 33% 0.0 mm 460 W/m2
20:57 28.5 °C 10.7 °C 1008.7 hPa SSE 8.7 km/h 14.8 km/h 33% 0.0 mm 460 W/m2
21:02 28.5 °C 10.7 °C 1008.7 hPa SSE 8.7 km/h 14.8 km/h 33% 0.0 mm 460 W/m2
21:07 28.5 °C 10.7 °C 1008.7 hPa SSE 8.7 km/h 14.8 km/h 33% 0.0 mm 460 W/m2
21:12 28.5 °C 10.7 °C 1008.7 hPa SSE 8.7 km/h 14.8 km/h 33% 0.0 mm 460 W/m2
21:17 28.5 °C 10.7 °C 1008.7 hPa SSE 8.7 km/h 14.8 km/h 33% 0.0 mm 460 W/m2
21:22 28.5 °C 10.7 °C 1008.7 hPa SSE 8.7 km/h 14.8 km/h 33% 0.0 mm 460 W/m2
21:28 28.5 °C 10.7 °C 1008.7 hPa SSE 8.7 km/h 14.8 km/h 33% 0.0 mm 460 W/m2
21:33 28.5 °C 10.7 °C 1008.7 hPa SSE 8.7 km/h 14.8 km/h 33% 0.0 mm 460 W/m2
21:38 28.5 °C 10.7 °C 1008.7 hPa SSE 8.7 km/h 14.8 km/h 33% 0.0 mm 460 W/m2
21:43 28.5 °C 10.7 °C 1008.7 hPa SSE 8.7 km/h 14.8 km/h 33% 0.0 mm 460 W/m2
21:48 28.5 °C 10.7 °C 1008.7 hPa SSE 8.7 km/h 14.8 km/h 33% 0.0 mm 460 W/m2
21:54 28.5 °C 10.7 °C 1008.7 hPa SSE 8.7 km/h 14.8 km/h 33% 0.0 mm 460 W/m2
21:59 28.5 °C 10.7 °C 1008.7 hPa SSE 8.7 km/h 14.8 km/h 33% 0.0 mm 460 W/m2
22:04 28.5 °C 10.7 °C 1008.7 hPa SSE 8.7 km/h 14.8 km/h 33% 0.0 mm 460 W/m2
22:09 28.5 °C 10.7 °C 1008.7 hPa SSE 8.7 km/h 14.8 km/h 33% 0.0 mm 460 W/m2
22:14 28.5 °C 10.7 °C 1008.7 hPa SSE 8.7 km/h 14.8 km/h 33% 0.0 mm 460 W/m2
22:16 28.5 °C 10.7 °C 1008.7 hPa SSE 8.7 km/h 14.8 km/h 33% 0.0 mm 460 W/m2
22:21 28.5 °C 10.7 °C 1008.7 hPa SSE 8.7 km/h 14.8 km/h 33% 0.0 mm 460 W/m2
22:26 28.5 °C 10.7 °C 1008.7 hPa SSE 8.7 km/h 14.8 km/h 33% 0.0 mm 460 W/m2
22:31 17.9 °C 12.6 °C 1012.4 hPa Calm   1.1 km/h 71% 0.0 mm 0 W/m2
22:36 17.7 °C 12.4 °C 1012.8 hPa Calm   2.6 km/h 71% 0.0 mm 0 W/m2
22:41 17.5 °C 12.2 °C 1012.8 hPa NNE 3.5 km/h 5.0 km/h 71% 0.0 mm 0 W/m2
22:46 17.4 °C 12.3 °C 1012.8 hPa NE 2.6 km/h 6.1 km/h 72% 0.0 mm 0 W/m2
22:52 17.3 °C 12.2 °C 1012.8 hPa Calm   6.1 km/h 72% 0.0 mm 0 W/m2
22:57 17.3 °C 12.4 °C 1013.1 hPa North 1.1 km/h 5.0 km/h 73% 0.0 mm 0 W/m2
23:02 17.3 °C 12.4 °C 1013.1 hPa Calm   5.0 km/h 73% 0.0 mm 0 W/m2
23:07 17.1 °C 12.2 °C 1013.1 hPa Calm   7.2 km/h 73% 0.0 mm 0 W/m2
23:12 17.0 °C 12.3 °C 1013.4 hPa West 3.5 km/h 7.2 km/h 74% 0.0 mm 0 W/m2
23:17 17.1 °C 12.4 °C 1013.4 hPa WNW 1.1 km/h 6.1 km/h 74% 0.0 mm 0 W/m2
23:22 17.2 °C 12.6 °C 1013.4 hPa Calm   5.0 km/h 74% 0.0 mm 0 W/m2
23:27 17.2 °C 12.6 °C 1013.4 hPa Calm   5.0 km/h 74% 0.0 mm 0 W/m2
23:32 17.2 °C 12.6 °C 1013.4 hPa WSW 3.5 km/h 7.2 km/h 74% 0.0 mm 0 W/m2
23:37 17.4 °C 12.9 °C 1013.4 hPa SW 5.0 km/h 7.2 km/h 75% 0.0 mm 0 W/m2
23:42 18.0 °C 13.7 °C 1013.8 hPa SW 9.7 km/h 14.8 km/h 76% 0.0 mm 0 W/m2
23:47 19.0 °C 13.8 °C 1013.8 hPa WSW 12.2 km/h 20.9 km/h 72% 0.0 mm 0 W/m2
23:52 19.6 °C 13.3 °C 1013.8 hPa WSW 13.4 km/h 27.0 km/h 67% 0.0 mm 0 W/m2
23:57 20.0 °C 12.8 °C 1013.8 hPa WSW 12.2 km/h 27.0 km/h 63% 0.0 mm 0 W/m2
Northern Hawkes Bay. New Zealand Historic Data
Compliments of Weather Underground - 2 mb